Time;durP1;ratioP1;P1;durP2;ratioP2;P2;SDS_P1;SDS_P2;PMS_P1;PMS_P2;Temp;Humidity;BMP_temperature;BMP_pressure;BME280_temperature;BME280_humidity;BME280_pressure;Samples;Min_cycle;Max_cycle;Signal;HPM_P1;HPM_P2
2022/03/08 00:01:28;;;;;;;24.43;18.77;;;0.70;94.20;;;;;;5034383;28;20188;-66
2022/03/08 00:03:53;;;;;;;24.30;19.00;;;0.70;94.30;;;;;;5034005;28;20456;-66
2022/03/08 00:06:19;;;;;;;25.50;19.73;;;0.70;94.50;;;;;;5034250;28;20953;-67
2022/03/08 00:08:45;;;;;;;22.10;19.33;;;0.70;94.50;;;;;;5033982;28;20248;-66
2022/03/08 00:11:10;;;;;;;23.10;18.83;;;0.70;94.80;;;;;;5034496;28;20575;-66
2022/03/08 00:13:36;;;;;;;25.27;19.37;;;0.70;94.90;;;;;;5034027;28;20534;-66
2022/03/08 00:16:02;;;;;;;23.40;19.00;;;0.60;95.20;;;;;;5033827;28;20190;-66
2022/03/08 00:18:28;;;;;;;25.33;19.07;;;0.60;95.30;;;;;;5033308;28;20182;-66
2022/03/08 00:20:54;;;;;;;23.43;18.67;;;0.60;95.50;;;;;;5033660;28;20562;-66
2022/03/08 00:23:20;;;;;;;25.90;19.60;;;0.50;95.70;;;;;;5033588;28;20697;-66
2022/03/08 00:25:45;;;;;;;19.57;17.17;;;0.50;95.90;;;;;;5033852;28;20171;-65
2022/03/08 00:28:11;;;;;;;23.93;19.03;;;0.60;96.00;;;;;;5033637;28;20540;-66
2022/03/08 00:30:38;;;;;;;25.27;20.43;;;0.60;96.00;;;;;;5033519;28;20201;-66
2022/03/08 00:33:03;;;;;;;25.20;18.60;;;0.50;96.00;;;;;;5032856;28;20261;-66
2022/03/08 00:35:29;;;;;;;25.30;18.30;;;0.50;96.40;;;;;;5033519;28;20482;-66
2022/03/08 00:37:58;;;;;;;18.10;15.80;;;0.40;96.70;;;;;;5033399;28;20169;-66
2022/03/08 00:40:24;;;;;;;21.50;17.93;;;0.30;96.50;;;;;;5033420;28;20455;-66
2022/03/08 00:42:51;;;;;;;22.67;18.30;;;0.40;96.70;;;;;;5033266;28;20409;-66
2022/03/08 00:45:17;;;;;;;21.47;17.20;;;0.40;96.80;;;;;;5032300;28;20480;-66
2022/03/08 00:47:43;;;;;;;23.20;17.90;;;0.40;96.80;;;;;;5030325;28;20956;-66
2022/03/08 00:50:15;;;;;;;20.63;17.20;;;0.40;96.90;;;;;;5033053;28;20226;-66
2022/03/08 00:52:41;;;;;;;22.27;17.73;;;0.40;97.20;;;;;;5033488;28;20394;-68
2022/03/08 00:55:08;;;;;;;20.30;17.93;;;0.40;97.30;;;;;;5033156;28;20896;-67
2022/03/08 00:57:34;;;;;;;24.77;18.50;;;0.40;97.40;;;;;;5033125;28;20666;-67
2022/03/08 00:59:59;;;;;;;24.00;18.60;;;0.30;97.60;;;;;;5032948;28;20428;-67
2022/03/08 01:02:25;;;;;;;22.17;17.37;;;0.20;97.50;;;;;;5033064;28;20176;-67
2022/03/08 01:04:50;;;;;;;21.77;17.10;;;0.20;97.90;;;;;;5032728;28;20699;-66
2022/03/08 01:07:17;;;;;;;19.57;17.53;;;0.30;97.90;;;;;;5032927;28;20175;-67
2022/03/08 01:09:43;;;;;;;21.70;17.60;;;0.20;97.80;;;;;;5032970;28;20216;-67
2022/03/08 01:12:09;;;;;;;22.87;19.10;;;0.30;98.00;;;;;;5033076;28;20417;-67
2022/03/08 01:14:35;;;;;;;21.17;17.90;;;0.20;97.80;;;;;;5033137;28;20778;-66
2022/03/08 01:17:00;;;;;;;20.20;16.00;;;0.30;98.10;;;;;;5033303;28;20422;-65
2022/03/08 01:19:26;;;;;;;21.33;17.80;;;0.30;98.00;;;;;;5032157;28;20216;-67
2022/03/08 01:21:52;;;;;;;20.20;16.50;;;0.30;98.00;;;;;;5033099;28;20212;-66
2022/03/08 01:24:17;;;;;;;22.50;17.30;;;0.30;98.20;;;;;;5032995;28;20200;-66
2022/03/08 01:26:43;;;;;;;23.40;19.13;;;0.40;98.20;;;;;;5054823;22;20227;-67
2022/03/08 01:29:08;;;;;;;22.57;18.43;;;0.30;98.00;;;;;;5021898;28;20184;-66
2022/03/08 01:31:34;;;;;;;25.87;16.80;;;0.40;98.20;;;;;;5032434;28;20168;-66
2022/03/08 01:34:01;;;;;;;22.00;17.47;;;0.30;98.30;;;;;;5032637;28;20544;-67
2022/03/08 01:36:27;;;;;;;25.23;17.57;;;0.30;98.40;;;;;;5036616;28;20180;-68
2022/03/08 01:38:53;;;;;;;19.00;16.27;;;0.20;98.40;;;;;;5052354;28;20414;-68
2022/03/08 01:41:19;;;;;;;19.97;17.10;;;0.20;98.50;;;;;;5065278;22;20223;-67
2022/03/08 01:43:45;;;;;;;20.07;16.07;;;0.20;98.60;;;;;;5051074;28;20194;-67
2022/03/08 01:46:12;;;;;;;20.20;15.73;;;0.20;98.50;;;;;;5055571;28;20408;-66
2022/03/08 01:48:38;;;;;;;19.97;16.60;;;0.10;98.60;;;;;;5055151;28;20425;-67
2022/03/08 01:51:04;;;;;;;18.50;16.20;;;0.10;98.80;;;;;;5056155;28;20942;-67
2022/03/08 01:53:32;;;;;;;20.00;17.00;;;0.10;99.30;;;;;;5056493;28;20484;-67
2022/03/08 01:55:58;;;;;;;19.87;15.40;;;0.10;99.10;;;;;;5056413;28;20494;-67
2022/03/08 01:58:24;;;;;;;19.27;15.90;;;0.00;99.10;;;;;;5103496;22;20569;-67
2022/03/08 02:00:49;;;;;;;19.23;14.00;;;0.00;99.20;;;;;;5067244;28;20657;-67
2022/03/08 02:03:15;;;;;;;20.10;17.43;;;0.00;99.30;;;;;;5075984;28;20220;-67
2022/03/08 02:05:40;;;;;;;18.77;16.77;;;0.00;99.40;;;;;;5076105;28;20205;-67
2022/03/08 02:08:06;;;;;;;18.40;15.07;;;-0.10;99.10;;;;;;5083134;28;20662;-66
2022/03/08 02:10:32;;;;;;;22.10;18.40;;;-0.20;99.60;;;;;;5096169;28;20167;-67
2022/03/08 02:12:58;;;;;;;19.90;16.40;;;-0.20;99.80;;;;;;5097864;22;20494;-68
2022/03/08 02:15:27;;;;;;;21.60;16.73;;;-0.10;99.60;;;;;;5025995;28;20413;-67
2022/03/08 02:17:55;;;;;;;20.20;16.23;;;-0.10;99.70;;;;;;5016061;28;20255;-67
2022/03/08 02:20:21;;;;;;;20.70;15.80;;;-0.10;99.60;;;;;;5014530;28;20404;-67
2022/03/08 02:22:48;;;;;;;21.13;15.80;;;0.00;99.70;;;;;;5015793;28;20427;-67
2022/03/08 02:25:15;;;;;;;21.17;16.87;;;0.00;99.50;;;;;;5016030;28;20257;-67
2022/03/08 02:27:53;;;;;;;21.30;17.67;;;-0.10;99.50;;;;;;5017455;28;20483;-66
2022/03/08 02:30:21;;;;;;;19.73;15.40;;;-0.10;99.80;;;;;;5072754;22;20876;-66
2022/03/08 02:32:47;;;;;;;21.03;15.77;;;-0.20;99.80;;;;;;5055468;28;20427;-66
2022/03/08 02:35:21;;;;;;;21.67;17.33;;;-0.20;99.90;;;;;;5055539;28;20394;-66
2022/03/08 02:37:50;;;;;;;19.23;16.57;;;-0.20;99.90;;;;;;5054458;28;20969;-66
2022/03/08 02:40:20;;;;;;;18.87;14.77;;;-0.20;99.90;;;;;;5055840;28;20421;-66
2022/03/08 02:42:45;;;;;;;21.03;16.90;;;-0.30;99.90;;;;;;5063172;22;20492;-67
2022/03/08 02:45:13;;;;;;;21.70;16.83;;;-0.40;99.90;;;;;;5020952;28;20446;-65
2022/03/08 02:47:39;;;;;;;21.20;16.10;;;-0.40;99.90;;;;;;5016919;28;20410;-66
2022/03/08 02:50:06;;;;;;;23.93;17.40;;;-0.40;99.90;;;;;;5034453;28;20489;-66
2022/03/08 02:52:33;;;;;;;23.83;17.20;;;-0.40;99.90;;;;;;5021541;28;20420;-66
2022/03/08 02:54:58;;;;;;;23.10;17.13;;;-0.40;99.90;;;;;;5015226;28;20844;-66
2022/03/08 02:57:24;;;;;;;20.60;16.90;;;-0.40;99.90;;;;;;5041842;22;20516;-67
2022/03/08 02:59:50;;;;;;;21.00;17.63;;;-0.40;99.90;;;;;;5045151;28;20194;-67
2022/03/08 03:02:16;;;;;;;20.77;17.37;;;-0.30;99.90;;;;;;5059082;28;20167;-67
2022/03/08 03:04:42;;;;;;;20.77;15.93;;;-0.30;99.90;;;;;;5058544;28;20274;-67
2022/03/08 03:07:07;;;;;;;20.23;16.30;;;-0.40;99.90;;;;;;5056145;28;20194;-67
2022/03/08 03:09:33;;;;;;;22.80;17.60;;;-0.40;99.90;;;;;;5054875;28;20395;-67
2022/03/08 03:14:26;;;;;;;21.10;17.27;;;-0.40;99.90;;;;;;5001794;28;20220;-66
2022/03/08 03:16:52;;;;;;;20.20;16.50;;;-0.40;99.90;;;;;;5014649;28;20403;-67
2022/03/08 03:19:17;;;;;;;22.13;18.37;;;-0.50;99.90;;;;;;5014831;28;20172;-67
2022/03/08 03:21:43;;;;;;;21.43;17.70;;;-0.50;99.90;;;;;;5014666;28;20197;-67
2022/03/08 03:24:09;;;;;;;23.57;18.97;;;-0.50;99.90;;;;;;5032732;28;20233;-66
2022/03/08 03:26:34;;;;;;;20.73;17.70;;;-0.50;99.90;;;;;;5034525;28;20174;-66
2022/03/08 03:29:00;;;;;;;22.03;17.03;;;-0.50;99.90;;;;;;5063362;22;21229;-67
2022/03/08 03:31:25;;;;;;;22.20;17.43;;;-0.50;99.90;;;;;;5034267;28;20229;-66
2022/03/08 03:33:51;;;;;;;20.50;16.60;;;-0.60;99.90;;;;;;5034666;28;20175;-66
2022/03/08 03:36:16;;;;;;;25.07;17.97;;;-0.60;99.90;;;;;;5033731;28;20254;-66
2022/03/08 03:38:42;;;;;;;22.13;17.93;;;-0.60;99.90;;;;;;5033822;28;20181;-66
2022/03/08 03:41:08;;;;;;;24.80;16.17;;;-0.60;99.90;;;;;;5034257;28;20172;-66
2022/03/08 03:43:34;;;;;;;23.40;18.37;;;-0.50;99.90;;;;;;5056241;22;20693;-67
2022/03/08 03:46:00;;;;;;;20.37;16.93;;;-0.60;99.90;;;;;;5029078;28;20461;-67
2022/03/08 03:48:25;;;;;;;22.13;17.13;;;-0.60;99.90;;;;;;5021398;28;20571;-68
2022/03/08 03:50:51;;;;;;;21.90;16.77;;;-0.60;99.90;;;;;;5034521;28;20453;-67
2022/03/08 03:53:17;;;;;;;21.90;17.20;;;-0.50;99.90;;;;;;5034407;28;20180;-67
2022/03/08 03:55:42;;;;;;;22.77;16.67;;;-0.60;99.90;;;;;;5033069;28;20203;-66
2022/03/08 03:58:08;;;;;;;21.20;16.50;;;-0.60;99.90;;;;;;5034232;28;20650;-66
2022/03/08 04:00:33;;;;;;;19.67;15.60;;;-0.60;99.90;;;;;;5034353;28;20246;-66
2022/03/08 04:02:59;;;;;;;23.33;17.17;;;-0.70;99.90;;;;;;5033715;28;20183;-66
2022/03/08 04:05:25;;;;;;;18.03;13.80;;;-0.70;99.90;;;;;;5034034;28;20193;-67
2022/03/08 04:07:50;;;;;;;18.83;15.07;;;-0.60;99.90;;;;;;5033698;28;20171;-66
2022/03/08 04:10:16;;;;;;;15.70;13.67;;;-0.60;99.90;;;;;;5033900;28;20259;-67
2022/03/08 04:12:42;;;;;;;18.40;14.70;;;-0.60;99.90;;;;;;5034122;28;20181;-66
2022/03/08 04:15:09;;;;;;;17.03;14.83;;;-0.60;99.90;;;;;;5033889;28;20656;-65
2022/03/08 04:17:35;;;;;;;18.63;15.20;;;-0.70;99.90;;;;;;5033671;28;20774;-66
2022/03/08 04:20:01;;;;;;;14.77;13.13;;;-0.60;99.90;;;;;;5034114;28;20404;-67
2022/03/08 04:22:27;;;;;;;13.63;12.17;;;-0.50;99.90;;;;;;5034115;28;20728;-67
2022/03/08 04:24:53;;;;;;;19.17;14.90;;;-0.60;99.90;;;;;;5034049;28;20442;-66
2022/03/08 04:27:19;;;;;;;17.13;13.37;;;-0.60;99.90;;;;;;5032825;28;20166;-68
2022/03/08 04:29:45;;;;;;;18.83;14.53;;;-0.60;99.90;;;;;;5033790;28;20429;-67
2022/03/08 04:32:10;;;;;;;16.83;13.40;;;-0.60;99.90;;;;;;5033444;28;20164;-67
2022/03/08 04:34:36;;;;;;;17.57;14.87;;;-0.60;99.90;;;;;;5032871;28;20193;-67
2022/03/08 04:37:02;;;;;;;16.33;13.17;;;-0.60;99.90;;;;;;5033215;28;20378;-68
2022/03/08 04:39:27;;;;;;;18.03;13.83;;;-0.60;99.90;;;;;;5033127;28;20591;-67
2022/03/08 04:41:53;;;;;;;17.27;12.87;;;-0.50;99.90;;;;;;5033454;28;20175;-67
2022/03/08 04:44:18;;;;;;;14.27;12.47;;;-0.50;99.90;;;;;;5033384;28;20575;-67
2022/03/08 04:46:44;;;;;;;15.30;13.67;;;-0.50;99.90;;;;;;5033233;28;20164;-67
2022/03/08 04:49:10;;;;;;;15.33;12.20;;;-0.50;99.90;;;;;;5031972;28;20258;-67
2022/03/08 04:51:35;;;;;;;14.17;11.80;;;-0.50;99.90;;;;;;5033671;28;20174;-67
2022/03/08 04:54:01;;;;;;;13.70;12.17;;;-0.60;99.90;;;;;;5013640;28;20434;-67
2022/03/08 04:56:27;;;;;;;15.73;12.97;;;-0.50;99.90;;;;;;5014713;28;20168;-67
2022/03/08 04:58:53;;;;;;;13.60;11.30;;;-0.50;99.90;;;;;;5013779;28;20195;-67
2022/03/08 05:01:19;;;;;;;13.27;11.47;;;-0.50;99.90;;;;;;5014071;28;20176;-67
2022/03/08 05:03:45;;;;;;;15.07;12.10;;;-0.60;99.90;;;;;;5013100;28;20431;-67
2022/03/08 05:06:10;;;;;;;17.50;12.27;;;-0.60;99.90;;;;;;5013150;28;20391;-68
2022/03/08 05:08:36;;;;;;;17.57;12.30;;;-0.80;99.90;;;;;;5012999;28;20164;-66
2022/03/08 05:11:02;;;;;;;13.53;11.50;;;-0.90;99.90;;;;;;5013079;28;20627;-67
2022/03/08 05:13:30;;;;;;;12.20;10.90;;;-0.90;99.90;;;;;;5012981;28;20668;-66
2022/03/08 05:15:56;;;;;;;13.57;11.00;;;-0.90;99.90;;;;;;5013196;28;20435;-67
2022/03/08 05:18:22;;;;;;;15.40;10.60;;;-0.80;99.90;;;;;;5011297;28;20991;-67
2022/03/08 05:20:47;;;;;;;13.07;11.40;;;-0.80;99.90;;;;;;5012320;28;20553;-67
2022/03/08 05:23:13;;;;;;;12.37;11.07;;;-0.70;99.90;;;;;;5013068;28;20221;-68
2022/03/08 05:25:39;;;;;;;11.70;10.43;;;-0.80;99.90;;;;;;5008361;28;21025;-67
2022/03/08 05:28:05;;;;;;;15.50;10.30;;;-0.70;99.90;;;;;;5011487;28;20172;-67
2022/03/08 05:30:31;;;;;;;12.50;11.20;;;-0.80;99.90;;;;;;5008862;28;20262;-69
2022/03/08 05:32:56;;;;;;;12.87;10.43;;;-0.70;99.90;;;;;;5012329;28;20802;-67
2022/03/08 05:35:22;;;;;;;13.63;11.20;;;-0.70;99.90;;;;;;5012304;28;20177;-67
2022/03/08 05:37:47;;;;;;;14.40;11.10;;;-0.80;99.90;;;;;;5022000;28;20176;-68
2022/03/08 05:40:13;;;;;;;14.67;12.03;;;-0.70;99.90;;;;;;5032305;28;20225;-67
2022/03/08 05:42:39;;;;;;;15.47;12.33;;;-0.70;99.90;;;;;;5032063;28;20203;-67
2022/03/08 05:45:10;;;;;;;13.63;11.40;;;-0.70;99.90;;;;;;5032863;28;20551;-67
2022/03/08 05:47:36;;;;;;;13.97;12.23;;;-0.70;99.90;;;;;;5032335;28;20496;-68
2022/03/08 05:50:04;;;;;;;12.37;10.60;;;-0.70;99.90;;;;;;5030509;28;20441;-67
2022/03/08 05:52:29;;;;;;;14.43;11.77;;;-0.70;99.90;;;;;;5032540;28;20395;-67
2022/03/08 05:54:55;;;;;;;13.63;11.30;;;-0.70;99.90;;;;;;5032373;28;20463;-67
2022/03/08 05:57:20;;;;;;;13.80;11.43;;;-0.60;99.90;;;;;;5032140;28;20233;-67
2022/03/08 05:59:49;;;;;;;12.40;10.90;;;-0.70;99.90;;;;;;5032207;28;20259;-67
2022/03/08 06:02:18;;;;;;;15.93;12.43;;;-0.60;99.90;;;;;;5032370;28;20264;-68
2022/03/08 06:04:44;;;;;;;11.80;10.07;;;-0.60;99.90;;;;;;5030617;28;20458;-68
2022/03/08 06:07:10;;;;;;;14.60;11.30;;;-0.50;99.90;;;;;;5030808;28;20768;-67
2022/03/08 06:09:35;;;;;;;13.47;11.20;;;-0.50;99.90;;;;;;5032283;28;20181;-66
2022/03/08 06:12:02;;;;;;;12.83;11.03;;;-0.50;99.90;;;;;;5032417;28;20456;-68
2022/03/08 06:14:29;;;;;;;11.30;10.10;;;-0.50;99.90;;;;;;5032390;28;20180;-66
2022/03/08 06:16:54;;;;;;;13.67;11.00;;;-0.50;99.90;;;;;;5032098;28;20400;-66
2022/03/08 06:19:20;;;;;;;12.77;10.20;;;-0.50;99.90;;;;;;5032093;28;20465;-66
2022/03/08 06:21:45;;;;;;;12.93;10.13;;;-0.50;99.90;;;;;;5032033;28;20173;-68
2022/03/08 06:24:12;;;;;;;15.37;11.03;;;-0.40;99.90;;;;;;5031649;28;20204;-66
2022/03/08 06:26:38;;;;;;;10.90;9.80;;;-0.40;99.90;;;;;;5030626;28;20537;-67
2022/03/08 06:29:04;;;;;;;13.77;10.80;;;-0.30;99.90;;;;;;5032133;28;20402;-68
2022/03/08 06:31:29;;;;;;;17.47;11.80;;;-0.20;99.90;;;;;;5032133;28;20781;-67
2022/03/08 06:33:55;;;;;;;12.60;10.67;;;-0.10;99.90;;;;;;5035471;28;20758;-67
2022/03/08 06:36:21;;;;;;;15.23;12.13;;;-0.10;99.90;;;;;;5030606;28;20220;-67
2022/03/08 06:38:46;;;;;;;12.33;10.73;;;0.00;99.90;;;;;;5005609;28;20176;-66
2022/03/08 06:41:12;;;;;;;13.37;12.07;;;0.10;99.90;;;;;;5015886;28;20264;-67
2022/03/08 06:43:39;;;;;;;17.30;12.93;;;0.10;99.90;;;;;;5014264;28;20216;-67
2022/03/08 06:46:05;;;;;;;19.27;13.10;;;0.10;99.90;;;;;;5015596;28;20236;-67
2022/03/08 06:48:31;;;;;;;22.30;14.07;;;0.20;99.90;;;;;;5014425;28;20417;-67
2022/03/08 06:50:56;;;;;;;22.43;15.27;;;0.20;99.90;;;;;;5031069;28;20433;-67
2022/03/08 06:53:22;;;;;;;15.83;12.33;;;0.30;99.90;;;;;;5034004;28;20197;-67
2022/03/08 06:55:48;;;;;;;18.80;14.47;;;0.40;99.90;;;;;;5033840;28;20226;-68
2022/03/08 06:58:14;;;;;;;25.70;20.30;;;0.40;99.90;;;;;;5035166;28;20409;-67
2022/03/08 07:00:39;;;;;;;20.70;15.83;;;0.40;99.90;;;;;;5035054;28;20242;-66
2022/03/08 07:03:05;;;;;;;18.43;15.70;;;0.50;99.90;;;;;;5034822;28;20608;-67
2022/03/08 07:05:36;;;;;;;19.10;16.27;;;0.50;99.90;;;;;;5034697;28;20183;-68
2022/03/08 07:08:05;;;;;;;17.80;14.60;;;0.40;99.90;;;;;;5034520;28;20163;-68
2022/03/08 07:10:31;;;;;;;23.73;15.97;;;0.50;99.90;;;;;;5035071;28;20412;-66
2022/03/08 07:12:56;;;;;;;23.40;17.03;;;0.50;99.90;;;;;;5034615;28;20916;-68
2022/03/08 07:15:22;;;;;;;19.80;15.77;;;0.60;99.90;;;;;;5034682;28;20252;-67
2022/03/08 07:17:48;;;;;;;19.87;14.73;;;0.80;99.90;;;;;;5034609;28;20168;-68
2022/03/08 07:20:15;;;;;;;20.53;15.50;;;0.90;99.90;;;;;;5034395;28;20256;-68
2022/03/08 07:22:41;;;;;;;19.53;15.47;;;0.90;99.90;;;;;;5034722;28;20433;-68
2022/03/08 07:25:08;;;;;;;21.60;15.83;;;1.00;99.90;;;;;;5034465;28;20484;-68
2022/03/08 07:27:34;;;;;;;20.60;16.30;;;1.10;99.90;;;;;;5034525;28;20423;-67
2022/03/08 07:32:30;;;;;;;20.57;17.23;;;1.20;99.90;;;;;;5006437;28;20218;-66
2022/03/08 07:34:56;;;;;;;20.70;17.10;;;1.20;99.90;;;;;;4995169;28;20494;-66
2022/03/08 07:37:22;;;;;;;18.50;14.00;;;1.20;99.80;;;;;;4994773;28;20644;-66
2022/03/08 07:39:48;;;;;;;14.70;12.00;;;1.20;98.90;;;;;;4994971;28;20208;-66
2022/03/08 07:42:13;;;;;;;14.07;10.60;;;1.40;98.60;;;;;;4994642;28;20444;-65
2022/03/08 07:44:40;;;;;;;12.87;11.10;;;1.60;97.90;;;;;;5033203;22;20239;-67
2022/03/08 07:47:06;;;;;;;15.23;12.53;;;1.80;97.50;;;;;;5073858;28;20775;-67
2022/03/08 07:49:31;;;;;;;12.03;10.63;;;2.10;97.30;;;;;;5073722;28;20397;-67
2022/03/08 07:51:57;;;;;;;12.83;10.97;;;2.40;97.10;;;;;;5057385;28;20405;-67
2022/03/08 07:54:23;;;;;;;12.37;10.43;;;2.60;96.60;;;;;;5053941;28;20677;-67
2022/03/08 07:56:48;;;;;;;10.53;9.47;;;2.70;96.30;;;;;;5053913;28;20250;-67
2022/03/08 07:59:14;;;;;;;18.50;12.70;;;2.60;95.70;;;;;;5053740;28;20646;-67
2022/03/08 08:01:40;;;;;;;13.63;10.23;;;2.70;95.30;;;;;;5053630;28;20170;-67
2022/03/08 08:04:06;;;;;;;11.50;10.40;;;2.80;95.30;;;;;;5072887;22;20868;-67
2022/03/08 08:06:31;;;;;;;11.13;9.90;;;2.80;94.90;;;;;;5033284;28;20168;-66
2022/03/08 08:08:57;;;;;;;14.23;10.47;;;3.00;95.00;;;;;;5034350;28;20171;-66
2022/03/08 08:11:23;;;;;;;11.60;10.40;;;3.10;94.50;;;;;;5033855;28;20164;-66
2022/03/08 08:13:49;;;;;;;12.37;10.10;;;3.30;94.70;;;;;;5033880;28;20189;-66
2022/03/08 08:16:17;;;;;;;12.23;10.13;;;3.50;94.40;;;;;;5032543;28;20172;-66
2022/03/08 08:18:43;;;;;;;11.63;10.43;;;3.50;94.00;;;;;;5062619;22;20805;-69
2022/03/08 08:21:09;;;;;;;12.00;10.80;;;3.50;93.80;;;;;;5025118;28;20849;-68
2022/03/08 08:23:34;;;;;;;15.13;11.80;;;3.50;93.60;;;;;;5033469;28;20402;-67
2022/03/08 08:26:00;;;;;;;14.80;11.50;;;3.50;93.70;;;;;;5033724;28;20206;-67
2022/03/08 08:28:26;;;;;;;11.90;10.80;;;3.60;93.50;;;;;;5033148;28;20163;-67
2022/03/08 08:30:51;;;;;;;14.77;10.83;;;3.40;93.40;;;;;;5059313;22;20632;-65
2022/03/08 08:33:17;;;;;;;13.23;11.83;;;3.50;93.90;;;;;;5030678;28;20195;-66
2022/03/08 08:35:43;;;;;;;13.63;12.20;;;3.60;93.50;;;;;;5032703;28;20636;-66
2022/03/08 08:38:08;;;;;;;10.83;9.80;;;3.60;93.40;;;;;;5053411;22;20222;-67
2022/03/08 08:40:36;;;;;;;11.43;10.23;;;3.70;93.40;;;;;;5024218;28;20262;-68
2022/03/08 08:43:05;;;;;;;10.90;9.90;;;3.90;93.30;;;;;;5035608;28;20171;-68
2022/03/08 08:45:30;;;;;;;11.63;10.43;;;4.00;93.10;;;;;;5032986;28;20437;-67
2022/03/08 08:47:57;;;;;;;12.40;10.50;;;4.10;92.80;;;;;;5019522;28;20436;-67
2022/03/08 08:50:22;;;;;;;11.57;10.23;;;4.20;92.50;;;;;;5052594;28;20165;-68
2022/03/08 08:52:48;;;;;;;10.97;9.80;;;4.30;92.10;;;;;;5051822;23;20490;-66
2022/03/08 08:55:14;;;;;;;11.07;10.03;;;4.40;92.10;;;;;;5023943;28;20179;-66
2022/03/08 08:57:40;;;;;;;11.60;10.40;;;4.40;92.00;;;;;;5033392;28;20398;-65
2022/03/08 09:00:07;;;;;;;13.53;10.10;;;4.60;91.90;;;;;;5033029;28;20167;-65
2022/03/08 09:02:34;;;;;;;10.13;9.23;;;4.60;91.70;;;;;;5032865;28;20270;-65
2022/03/08 09:05:00;;;;;;;10.73;9.63;;;4.80;91.50;;;;;;5027353;28;20453;-65
2022/03/08 09:07:25;;;;;;;13.50;9.60;;;4.70;90.70;;;;;;5024389;28;20402;-65
2022/03/08 09:09:51;;;;;;;10.27;9.33;;;4.70;90.90;;;;;;5072864;22;20495;-67
2022/03/08 09:12:17;;;;;;;10.03;8.80;;;4.70;90.70;;;;;;5061885;28;20181;-67
2022/03/08 09:14:42;;;;;;;11.20;9.30;;;4.70;90.70;;;;;;5053269;28;20177;-66
2022/03/08 09:17:08;;;;;;;10.00;8.80;;;4.90;90.70;;;;;;5052474;28;20261;-65
2022/03/08 09:19:34;;;;;;;10.93;8.10;;;5.00;90.80;;;;;;5044429;28;20597;-65
2022/03/08 09:22:00;;;;;;;10.00;9.00;;;5.10;90.00;;;;;;5032696;28;20171;-66
2022/03/08 09:24:25;;;;;;;9.73;8.10;;;5.10;89.70;;;;;;5070756;22;20231;-67
2022/03/08 09:26:51;;;;;;;8.83;8.03;;;5.10;89.00;;;;;;5050911;28;20203;-66
2022/03/08 09:29:17;;;;;;;10.37;9.27;;;5.10;89.50;;;;;;5052513;28;20628;-66
2022/03/08 09:31:43;;;;;;;9.97;8.97;;;5.20;89.40;;;;;;5052392;28;20166;-68
2022/03/08 09:34:09;;;;;;;9.30;8.40;;;5.40;89.40;;;;;;5052263;28;20894;-67
2022/03/08 09:36:36;;;;;;;9.13;8.23;;;5.30;87.70;;;;;;5072261;28;20186;-65
2022/03/08 09:39:03;;;;;;;9.80;8.20;;;5.40;88.80;;;;;;5072642;28;20885;-66
2022/03/08 09:41:29;;;;;;;8.70;7.80;;;5.70;87.80;;;;;;5072445;28;20401;-67
2022/03/08 09:43:55;;;;;;;9.40;8.40;;;5.80;87.10;;;;;;5072402;28;20896;-68
2022/03/08 09:46:21;;;;;;;12.03;7.47;;;5.80;85.80;;;;;;5072410;28;20428;-68
2022/03/08 09:48:46;;;;;;;10.17;7.27;;;5.80;85.50;;;;;;5072614;28;20170;-68
2022/03/08 09:51:14;;;;;;;10.53;7.83;;;5.90;84.70;;;;;;5063184;28;20560;-68
2022/03/08 09:53:41;;;;;;;8.07;7.37;;;5.90;83.40;;;;;;5052314;28;20182;-67
2022/03/08 09:56:06;;;;;;;8.00;7.20;;;5.70;82.60;;;;;;5052267;28;20463;-67
2022/03/08 10:01:10;;;;;;;8.60;6.97;;;6.10;82.80;;;;;;5033967;28;20234;-65
2022/03/08 10:03:39;;;;;;;8.30;7.33;;;6.20;82.50;;;;;;5037852;28;20418;-65
2022/03/08 10:06:06;;;;;;;8.67;7.77;;;6.30;81.70;;;;;;5039183;28;20193;-68
2022/03/08 10:08:32;;;;;;;7.90;7.20;;;6.40;80.30;;;;;;5041137;28;20405;-66
2022/03/08 10:10:59;;;;;;;9.03;8.10;;;6.20;79.10;;;;;;5056413;28;20761;-68
2022/03/08 10:13:36;;;;;;;8.67;7.20;;;6.20;78.50;;;;;;5078767;22;20460;-67
2022/03/08 10:16:15;;;;;;;8.70;7.80;;;6.10;78.90;;;;;;5055000;28;20892;-66
2022/03/08 10:18:46;;;;;;;9.03;7.37;;;6.30;79.00;;;;;;5057001;28;20411;-66
2022/03/08 10:21:32;;;;;;;9.53;8.03;;;6.70;79.30;;;;;;5038448;28;20402;-67
2022/03/08 10:24:19;;;;;;;11.60;8.10;;;6.80;78.00;;;;;;5056172;28;20449;-67
2022/03/08 10:26:56;;;;;;;7.90;7.13;;;6.80;76.60;;;;;;5055588;28;20416;-67
2022/03/08 10:29:27;;;;;;;9.43;8.37;;;6.70;76.60;;;;;;5055544;28;20386;-67
2022/03/08 10:32:16;;;;;;;7.90;7.10;;;6.50;76.00;;;;;;5055726;28;20417;-67
2022/03/08 10:34:43;;;;;;;8.70;7.90;;;6.50;77.40;;;;;;5055708;28;20429;-67
2022/03/08 10:37:19;;;;;;;8.90;8.00;;;6.80;77.20;;;;;;5055538;28;20402;-66
2022/03/08 10:40:03;;;;;;;7.50;6.80;;;7.00;76.30;;;;;;5055607;28;20400;-68
2022/03/08 10:42:35;;;;;;;8.73;7.50;;;7.10;74.90;;;;;;5051849;28;20497;-67
2022/03/08 10:45:13;;;;;;;10.73;6.90;;;7.10;74.30;;;;;;5054780;28;20475;-68
2022/03/08 10:47:50;;;;;;;7.73;6.93;;;7.30;73.40;;;;;;5054890;28;20945;-67
2022/03/08 10:50:18;;;;;;;7.60;6.90;;;7.20;72.00;;;;;;5055674;28;20398;-67
2022/03/08 10:52:46;;;;;;;7.37;6.07;;;7.00;71.90;;;;;;5054835;28;20409;-68
2022/03/08 10:55:20;;;;;;;9.93;7.40;;;7.20;72.80;;;;;;5054342;28;20447;-66
2022/03/08 10:57:50;;;;;;;10.07;6.30;;;7.40;71.60;;;;;;5056349;28;20454;-66
2022/03/08 11:00:20;;;;;;;8.10;7.30;;;7.50;69.70;;;;;;5055131;28;20409;-67
2022/03/08 11:03:00;;;;;;;7.73;7.00;;;7.70;70.00;;;;;;5054904;28;20404;-67
2022/03/08 11:05:55;;;;;;;10.67;7.63;;;7.80;69.30;;;;;;5054876;28;20883;-66
2022/03/08 11:08:27;;;;;;;7.43;6.20;;;7.70;68.00;;;;;;5051926;28;20563;-67
2022/03/08 11:10:54;;;;;;;8.93;7.33;;;7.80;67.90;;;;;;5054904;28;20389;-67
2022/03/08 11:13:20;;;;;;;10.30;6.43;;;7.90;66.80;;;;;;5054778;28;20422;-67
2022/03/08 11:15:46;;;;;;;8.13;6.70;;;7.80;66.10;;;;;;5037014;28;20417;-67
2022/03/08 11:18:14;;;;;;;7.43;6.57;;;7.80;67.10;;;;;;5053994;28;20763;-67
2022/03/08 11:20:42;;;;;;;6.90;6.20;;;8.00;66.30;;;;;;5054535;28;20180;-67
2022/03/08 11:23:09;;;;;;;11.37;7.20;;;8.30;67.30;;;;;;5054459;28;20403;-67
2022/03/08 11:25:40;;;;;;;11.03;8.43;;;8.70;64.40;;;;;;5054373;28;20455;-67
2022/03/08 11:28:07;;;;;;;7.10;6.33;;;9.80;63.40;;;;;;5054238;28;20837;-67
2022/03/08 11:30:36;;;;;;;7.37;6.50;;;10.90;58.20;;;;;;5054729;28;20402;-67
2022/03/08 11:33:21;;;;;;;7.70;7.00;;;11.70;55.20;;;;;;5036556;28;20416;-67
2022/03/08 11:36:05;;;;;;;7.53;6.00;;;12.50;52.90;;;;;;5054721;28;20388;-67
2022/03/08 11:38:30;;;;;;;6.93;6.30;;;12.80;51.30;;;;;;5054574;28;20398;-67
2022/03/08 11:40:58;;;;;;;6.47;5.87;;;14.00;50.20;;;;;;5054060;28;20905;-68
2022/03/08 11:43:44;;;;;;;6.47;5.57;;;12.80;48.30;;;;;;5054158;28;20174;-67
2022/03/08 11:46:21;;;;;;;8.30;7.50;;;12.60;48.30;;;;;;5054135;28;20480;-67
2022/03/08 11:48:59;;;;;;;14.80;6.93;;;14.40;46.90;;;;;;5054498;28;20870;-68
2022/03/08 11:51:28;;;;;;;8.20;6.40;;;13.60;45.90;;;;;;5053982;28;20432;-68
2022/03/08 11:54:05;;;;;;;9.10;6.60;;;13.80;46.70;;;;;;5050601;28;20443;-68
2022/03/08 11:56:47;;;;;;;10.27;6.83;;;13.80;44.30;;;;;;5052836;28;20469;-67
2022/03/08 11:59:13;;;;;;;8.03;7.23;;;13.00;45.80;;;;;;5033693;28;20514;-68
2022/03/08 12:01:39;;;;;;;7.73;6.77;;;13.40;45.90;;;;;;5044745;28;20414;-68
2022/03/08 12:04:11;;;;;;;10.30;6.30;;;14.60;46.70;;;;;;5044475;28;20455;-67
2022/03/08 12:06:38;;;;;;;6.90;6.30;;;15.20;42.30;;;;;;5045194;28;20181;-67
2022/03/08 12:09:07;;;;;;;6.90;6.20;;;15.40;44.40;;;;;;5026243;28;20420;-67
2022/03/08 12:11:41;;;;;;;7.87;7.00;;;17.40;42.60;;;;;;5044182;28;20428;-69
2022/03/08 12:14:16;;;;;;;8.80;7.90;;;18.40;40.60;;;;;;5044089;28;20515;-67
2022/03/08 12:16:47;;;;;;;7.60;6.97;;;17.70;38.90;;;;;;5044894;28;21236;-70
2022/03/08 12:19:19;;;;;;;6.63;6.03;;;17.40;39.50;;;;;;5044475;28;20428;-68
2022/03/08 12:21:45;;;;;;;8.13;7.37;;;17.60;38.50;;;;;;5026506;28;20459;-69
2022/03/08 12:24:11;;;;;;;8.03;7.37;;;16.90;38.10;;;;;;5043668;28;20567;-68
2022/03/08 12:26:50;;;;;;;8.43;7.50;;;14.90;40.40;;;;;;5044225;28;20607;-69
2022/03/08 12:30:05;;;;;;;7.10;6.40;;;15.30;41.40;;;;;;5044108;28;20177;-69
2022/03/08 12:32:41;;;;;;;8.87;8.00;;;17.20;39.70;;;;;;5036529;28;20426;-66
2022/03/08 12:35:10;;;;;;;7.67;7.07;;;16.30;38.10;;;;;;5044044;28;20505;-69
2022/03/08 12:37:35;;;;;;;7.80;6.90;;;16.20;39.60;;;;;;5043868;28;20491;-66
2022/03/08 12:40:15;;;;;;;8.20;7.40;;;16.20;39.70;;;;;;5043872;28;20424;-67
2022/03/08 12:42:42;;;;;;;8.60;7.90;;;16.20;40.00;;;;;;5043538;28;20174;-69
2022/03/08 12:45:23;;;;;;;8.43;7.63;;;16.80;38.60;;;;;;5043860;28;20977;-68
2022/03/08 12:47:51;;;;;;;9.17;8.27;;;17.40;39.70;;;;;;5044098;28;20405;-67